sensor_id;sensor_type;location;lat;lon;timestamp;P1;durP1;ratioP1;P2;durP2;ratioP2
72373;SDS011;60349;64.132;-21.820;2023-04-16T00:00:58;1.88;;;0.00;;
72373;SDS011;60349;64.132;-21.820;2023-04-16T00:03:24;1.17;;;0.00;;
72373;SDS011;60349;64.132;-21.820;2023-04-16T00:05:50;0.77;;;0.00;;
72373;SDS011;60349;64.132;-21.820;2023-04-16T00:08:20;1.00;;;0.00;;
72373;SDS011;60349;64.132;-21.820;2023-04-16T00:10:48;1.35;;;0.00;;
72373;SDS011;60349;64.132;-21.820;2023-04-16T00:13:15;0.82;;;0.00;;
72373;SDS011;60349;64.132;-21.820;2023-04-16T00:15:41;2.40;;;0.00;;
72373;SDS011;60349;64.132;-21.820;2023-04-16T00:18:07;1.02;;;0.00;;
72373;SDS011;60349;64.132;-21.820;2023-04-16T00:20:33;1.58;;;0.00;;
72373;SDS011;60349;64.132;-21.820;2023-04-16T00:22:59;1.08;;;0.00;;
72373;SDS011;60349;64.132;-21.820;2023-04-16T00:25:25;0.25;;;0.00;;
72373;SDS011;60349;64.132;-21.820;2023-04-16T00:27:51;0.85;;;0.00;;
72373;SDS011;60349;64.132;-21.820;2023-04-16T00:30:17;0.68;;;0.00;;
72373;SDS011;60349;64.132;-21.820;2023-04-16T00:32:44;0.10;;;0.00;;
72373;SDS011;60349;64.132;-21.820;2023-04-16T00:35:10;2.40;;;0.00;;
72373;SDS011;60349;64.132;-21.820;2023-04-16T00:37:36;0.75;;;0.25;;
72373;SDS011;60349;64.132;-21.820;2023-04-16T00:40:02;0.70;;;0.10;;
72373;SDS011;60349;64.132;-21.820;2023-04-16T00:42:28;0.52;;;0.00;;
72373;SDS011;60349;64.132;-21.820;2023-04-16T00:44:54;0.90;;;0.00;;
72373;SDS011;60349;64.132;-21.820;2023-04-16T00:47:20;1.75;;;0.00;;
72373;SDS011;60349;64.132;-21.820;2023-04-16T00:49:46;0.13;;;0.00;;
72373;SDS011;60349;64.132;-21.820;2023-04-16T00:52:13;2.80;;;0.00;;
72373;SDS011;60349;64.132;-21.820;2023-04-16T00:54:39;2.63;;;0.00;;
72373;SDS011;60349;64.132;-21.820;2023-04-16T00:57:05;1.95;;;0.00;;
72373;SDS011;60349;64.132;-21.820;2023-04-16T00:59:31;2.67;;;0.10;;
72373;SDS011;60349;64.132;-21.820;2023-04-16T01:01:57;1.20;;;0.00;;
72373;SDS011;60349;64.132;-21.820;2023-04-16T01:04:23;1.38;;;0.00;;
72373;SDS011;60349;64.132;-21.820;2023-04-16T01:06:50;0.88;;;0.00;;
72373;SDS011;60349;64.132;-21.820;2023-04-16T01:09:16;2.13;;;0.10;;
72373;SDS011;60349;64.132;-21.820;2023-04-16T01:11:42;0.15;;;0.00;;
72373;SDS011;60349;64.132;-21.820;2023-04-16T01:14:08;2.17;;;0.00;;
72373;SDS011;60349;64.132;-21.820;2023-04-16T01:16:35;1.10;;;0.00;;
72373;SDS011;60349;64.132;-21.820;2023-04-16T01:19:01;3.58;;;0.00;;
72373;SDS011;60349;64.132;-21.820;2023-04-16T01:21:27;1.38;;;0.17;;
72373;SDS011;60349;64.132;-21.820;2023-04-16T01:23:53;0.03;;;0.00;;
72373;SDS011;60349;64.132;-21.820;2023-04-16T01:26:19;1.10;;;0.00;;
72373;SDS011;60349;64.132;-21.820;2023-04-16T01:28:45;0.30;;;0.00;;
72373;SDS011;60349;64.132;-21.820;2023-04-16T01:31:11;0.63;;;0.00;;
72373;SDS011;60349;64.132;-21.820;2023-04-16T01:33:37;1.75;;;0.00;;
72373;SDS011;60349;64.132;-21.820;2023-04-16T01:36:04;4.53;;;0.00;;
72373;SDS011;60349;64.132;-21.820;2023-04-16T01:38:30;0.15;;;0.00;;
72373;SDS011;60349;64.132;-21.820;2023-04-16T01:40:56;0.98;;;0.00;;
72373;SDS011;60349;64.132;-21.820;2023-04-16T01:43:23;0.20;;;0.00;;
72373;SDS011;60349;64.132;-21.820;2023-04-16T01:45:50;0.95;;;0.00;;
72373;SDS011;60349;64.132;-21.820;2023-04-16T01:48:17;0.60;;;0.00;;
72373;SDS011;60349;64.132;-21.820;2023-04-16T01:50:43;1.35;;;0.20;;
72373;SDS011;60349;64.132;-21.820;2023-04-16T01:53:09;1.75;;;0.00;;
72373;SDS011;60349;64.132;-21.820;2023-04-16T01:55:35;5.15;;;0.38;;
72373;SDS011;60349;64.132;-21.820;2023-04-16T01:58:01;2.92;;;0.20;;
72373;SDS011;60349;64.132;-21.820;2023-04-16T02:00:27;1.77;;;0.13;;
72373;SDS011;60349;64.132;-21.820;2023-04-16T02:02:53;2.28;;;0.13;;
72373;SDS011;60349;64.132;-21.820;2023-04-16T02:05:19;1.35;;;0.10;;
72373;SDS011;60349;64.132;-21.820;2023-04-16T02:07:46;14.82;;;0.30;;
72373;SDS011;60349;64.132;-21.820;2023-04-16T02:10:12;1.92;;;0.10;;
72373;SDS011;60349;64.132;-21.820;2023-04-16T02:12:38;1.50;;;0.10;;
72373;SDS011;60349;64.132;-21.820;2023-04-16T02:15:04;1.02;;;0.00;;
72373;SDS011;60349;64.132;-21.820;2023-04-16T02:17:31;0.45;;;0.00;;
72373;SDS011;60349;64.132;-21.820;2023-04-16T02:19:57;1.13;;;0.00;;
72373;SDS011;60349;64.132;-21.820;2023-04-16T02:22:23;1.50;;;0.00;;
72373;SDS011;60349;64.132;-21.820;2023-04-16T02:24:49;2.17;;;0.00;;
72373;SDS011;60349;64.132;-21.820;2023-04-16T02:27:15;1.55;;;0.28;;
72373;SDS011;60349;64.132;-21.820;2023-04-16T02:29:41;0.88;;;0.00;;
72373;SDS011;60349;64.132;-21.820;2023-04-16T02:32:08;0.90;;;0.00;;
72373;SDS011;60349;64.132;-21.820;2023-04-16T02:34:34;0.45;;;0.00;;
72373;SDS011;60349;64.132;-21.820;2023-04-16T02:37:00;0.77;;;0.00;;
72373;SDS011;60349;64.132;-21.820;2023-04-16T02:39:26;0.52;;;0.00;;
72373;SDS011;60349;64.132;-21.820;2023-04-16T02:41:52;0.85;;;0.00;;
72373;SDS011;60349;64.132;-21.820;2023-04-16T02:44:18;0.98;;;0.00;;
72373;SDS011;60349;64.132;-21.820;2023-04-16T02:46:45;0.47;;;0.00;;
72373;SDS011;60349;64.132;-21.820;2023-04-16T02:49:11;0.68;;;0.00;;
72373;SDS011;60349;64.132;-21.820;2023-04-16T02:51:37;2.83;;;0.00;;
72373;SDS011;60349;64.132;-21.820;2023-04-16T02:54:03;1.45;;;0.00;;
72373;SDS011;60349;64.132;-21.820;2023-04-16T02:56:29;0.40;;;0.00;;
72373;SDS011;60349;64.132;-21.820;2023-04-16T02:58:55;0.80;;;0.00;;
72373;SDS011;60349;64.132;-21.820;2023-04-16T03:01:21;2.25;;;0.00;;
72373;SDS011;60349;64.132;-21.820;2023-04-16T03:03:47;4.40;;;0.00;;
72373;SDS011;60349;64.132;-21.820;2023-04-16T03:06:13;3.20;;;0.00;;
72373;SDS011;60349;64.132;-21.820;2023-04-16T03:08:40;2.10;;;0.00;;
72373;SDS011;60349;64.132;-21.820;2023-04-16T03:11:06;2.92;;;0.00;;
72373;SDS011;60349;64.132;-21.820;2023-04-16T03:13:32;0.50;;;0.00;;
72373;SDS011;60349;64.132;-21.820;2023-04-16T03:15:59;4.57;;;0.00;;
72373;SDS011;60349;64.132;-21.820;2023-04-16T03:18:25;0.22;;;0.00;;
72373;SDS011;60349;64.132;-21.820;2023-04-16T03:20:51;2.28;;;0.10;;
72373;SDS011;60349;64.132;-21.820;2023-04-16T03:23:18;0.90;;;0.10;;
72373;SDS011;60349;64.132;-21.820;2023-04-16T03:25:44;1.45;;;0.00;;
72373;SDS011;60349;64.132;-21.820;2023-04-16T03:28:12;3.03;;;0.32;;
72373;SDS011;60349;64.132;-21.820;2023-04-16T03:30:38;2.15;;;0.00;;
72373;SDS011;60349;64.132;-21.820;2023-04-16T03:33:05;1.95;;;0.00;;
72373;SDS011;60349;64.132;-21.820;2023-04-16T03:35:31;1.08;;;0.00;;
72373;SDS011;60349;64.132;-21.820;2023-04-16T03:37:57;2.30;;;0.00;;
72373;SDS011;60349;64.132;-21.820;2023-04-16T03:40:23;0.90;;;0.00;;
72373;SDS011;60349;64.132;-21.820;2023-04-16T03:42:50;1.30;;;0.00;;
72373;SDS011;60349;64.132;-21.820;2023-04-16T03:45:16;1.88;;;0.08;;
72373;SDS011;60349;64.132;-21.820;2023-04-16T03:47:42;0.77;;;0.00;;
72373;SDS011;60349;64.132;-21.820;2023-04-16T03:50:08;0.43;;;0.00;;
72373;SDS011;60349;64.132;-21.820;2023-04-16T03:52:35;0.82;;;0.00;;
72373;SDS011;60349;64.132;-21.820;2023-04-16T03:55:01;0.20;;;0.00;;
72373;SDS011;60349;64.132;-21.820;2023-04-16T03:57:28;1.17;;;0.00;;
72373;SDS011;60349;64.132;-21.820;2023-04-16T03:59:54;1.85;;;0.00;;
72373;SDS011;60349;64.132;-21.820;2023-04-16T04:02:20;0.20;;;0.00;;
72373;SDS011;60349;64.132;-21.820;2023-04-16T04:04:46;0.68;;;0.00;;
72373;SDS011;60349;64.132;-21.820;2023-04-16T04:07:12;2.10;;;0.00;;
72373;SDS011;60349;64.132;-21.820;2023-04-16T04:09:38;1.27;;;0.00;;
72373;SDS011;60349;64.132;-21.820;2023-04-16T04:12:04;0.90;;;0.00;;
72373;SDS011;60349;64.132;-21.820;2023-04-16T04:14:30;0.77;;;0.00;;
72373;SDS011;60349;64.132;-21.820;2023-04-16T04:16:56;1.33;;;0.00;;
72373;SDS011;60349;64.132;-21.820;2023-04-16T04:19:23;1.48;;;0.00;;
72373;SDS011;60349;64.132;-21.820;2023-04-16T04:21:49;0.17;;;0.00;;
72373;SDS011;60349;64.132;-21.820;2023-04-16T04:24:15;0.52;;;0.00;;
72373;SDS011;60349;64.132;-21.820;2023-04-16T04:26:41;1.20;;;0.00;;
72373;SDS011;60349;64.132;-21.820;2023-04-16T04:29:07;0.57;;;0.00;;
72373;SDS011;60349;64.132;-21.820;2023-04-16T04:31:33;1.30;;;0.00;;
72373;SDS011;60349;64.132;-21.820;2023-04-16T04:33:59;0.90;;;0.00;;
72373;SDS011;60349;64.132;-21.820;2023-04-16T04:36:25;1.25;;;0.00;;
72373;SDS011;60349;64.132;-21.820;2023-04-16T04:38:52;0.20;;;0.00;;
72373;SDS011;60349;64.132;-21.820;2023-04-16T04:41:18;0.55;;;0.00;;
72373;SDS011;60349;64.132;-21.820;2023-04-16T04:43:45;0.75;;;0.00;;
72373;SDS011;60349;64.132;-21.820;2023-04-16T04:46:11;0.20;;;0.00;;
72373;SDS011;60349;64.132;-21.820;2023-04-16T04:48:37;0.75;;;0.00;;
72373;SDS011;60349;64.132;-21.820;2023-04-16T04:51:03;1.02;;;0.00;;
72373;SDS011;60349;64.132;-21.820;2023-04-16T04:53:29;0.30;;;0.00;;
72373;SDS011;60349;64.132;-21.820;2023-04-16T04:55:56;0.20;;;0.00;;
72373;SDS011;60349;64.132;-21.820;2023-04-16T04:58:22;1.13;;;0.13;;
72373;SDS011;60349;64.132;-21.820;2023-04-16T05:00:48;0.35;;;0.00;;
72373;SDS011;60349;64.132;-21.820;2023-04-16T05:03:17;0.20;;;0.00;;
72373;SDS011;60349;64.132;-21.820;2023-04-16T05:05:44;0.45;;;0.00;;
72373;SDS011;60349;64.132;-21.820;2023-04-16T05:08:10;0.77;;;0.00;;
72373;SDS011;60349;64.132;-21.820;2023-04-16T05:10:36;1.20;;;0.00;;
72373;SDS011;60349;64.132;-21.820;2023-04-16T05:13:02;2.97;;;0.00;;
72373;SDS011;60349;64.132;-21.820;2023-04-16T05:15:28;0.45;;;0.00;;
72373;SDS011;60349;64.132;-21.820;2023-04-16T05:17:55;1.05;;;0.00;;
72373;SDS011;60349;64.132;-21.820;2023-04-16T05:20:21;0.85;;;0.00;;
72373;SDS011;60349;64.132;-21.820;2023-04-16T05:22:49;1.17;;;0.00;;
72373;SDS011;60349;64.132;-21.820;2023-04-16T05:25:15;0.50;;;0.00;;
72373;SDS011;60349;64.132;-21.820;2023-04-16T05:27:41;0.38;;;0.00;;
72373;SDS011;60349;64.132;-21.820;2023-04-16T05:30:07;0.22;;;0.00;;
72373;SDS011;60349;64.132;-21.820;2023-04-16T05:32:34;0.88;;;0.00;;
72373;SDS011;60349;64.132;-21.820;2023-04-16T05:35:00;0.50;;;0.00;;
72373;SDS011;60349;64.132;-21.820;2023-04-16T05:37:26;1.55;;;0.00;;
72373;SDS011;60349;64.132;-21.820;2023-04-16T05:39:52;1.40;;;0.00;;
72373;SDS011;60349;64.132;-21.820;2023-04-16T05:42:19;0.93;;;0.00;;
72373;SDS011;60349;64.132;-21.820;2023-04-16T05:44:45;2.10;;;0.00;;
72373;SDS011;60349;64.132;-21.820;2023-04-16T05:47:11;0.55;;;0.00;;
72373;SDS011;60349;64.132;-21.820;2023-04-16T05:49:37;0.40;;;0.00;;
72373;SDS011;60349;64.132;-21.820;2023-04-16T05:52:03;0.20;;;0.00;;
72373;SDS011;60349;64.132;-21.820;2023-04-16T05:54:30;0.30;;;0.00;;
72373;SDS011;60349;64.132;-21.820;2023-04-16T05:56:56;2.63;;;0.00;;
72373;SDS011;60349;64.132;-21.820;2023-04-16T05:59:22;0.55;;;0.00;;
72373;SDS011;60349;64.132;-21.820;2023-04-16T06:01:48;0.28;;;0.00;;
72373;SDS011;60349;64.132;-21.820;2023-04-16T06:04:15;1.30;;;0.00;;
72373;SDS011;60349;64.132;-21.820;2023-04-16T06:06:41;0.82;;;0.00;;
72373;SDS011;60349;64.132;-21.820;2023-04-16T06:09:08;0.38;;;0.00;;
72373;SDS011;60349;64.132;-21.820;2023-04-16T06:11:34;2.30;;;0.00;;
72373;SDS011;60349;64.132;-21.820;2023-04-16T06:14:00;0.82;;;0.00;;
72373;SDS011;60349;64.132;-21.820;2023-04-16T06:16:26;1.70;;;0.00;;
72373;SDS011;60349;64.132;-21.820;2023-04-16T06:18:52;0.38;;;0.00;;
72373;SDS011;60349;64.132;-21.820;2023-04-16T06:21:18;0.73;;;0.00;;
72373;SDS011;60349;64.132;-21.820;2023-04-16T06:23:45;1.63;;;0.00;;
72373;SDS011;60349;64.132;-21.820;2023-04-16T06:26:11;1.20;;;0.00;;
72373;SDS011;60349;64.132;-21.820;2023-04-16T06:28:37;1.33;;;0.00;;
72373;SDS011;60349;64.132;-21.820;2023-04-16T06:31:03;0.63;;;0.00;;
72373;SDS011;60349;64.132;-21.820;2023-04-16T06:33:29;0.40;;;0.00;;
72373;SDS011;60349;64.132;-21.820;2023-04-16T06:35:55;0.70;;;0.00;;
72373;SDS011;60349;64.132;-21.820;2023-04-16T06:38:21;0.43;;;0.00;;
72373;SDS011;60349;64.132;-21.820;2023-04-16T06:40:47;0.30;;;0.00;;
72373;SDS011;60349;64.132;-21.820;2023-04-16T06:43:14;1.00;;;0.00;;
72373;SDS011;60349;64.132;-21.820;2023-04-16T06:45:41;0.38;;;0.00;;
72373;SDS011;60349;64.132;-21.820;2023-04-16T06:48:07;0.38;;;0.00;;
72373;SDS011;60349;64.132;-21.820;2023-04-16T06:50:34;0.20;;;0.00;;
72373;SDS011;60349;64.132;-21.820;2023-04-16T06:53:00;0.65;;;0.00;;
72373;SDS011;60349;64.132;-21.820;2023-04-16T06:55:26;0.17;;;0.00;;
72373;SDS011;60349;64.132;-21.820;2023-04-16T06:57:52;0.30;;;0.00;;
72373;SDS011;60349;64.132;-21.820;2023-04-16T07:00:18;0.20;;;0.00;;
72373;SDS011;60349;64.132;-21.820;2023-04-16T07:02:44;0.52;;;0.00;;
72373;SDS011;60349;64.132;-21.820;2023-04-16T07:05:11;3.60;;;0.00;;
72373;SDS011;60349;64.132;-21.820;2023-04-16T07:07:37;0.13;;;0.00;;
72373;SDS011;60349;64.132;-21.820;2023-04-16T07:10:03;0.32;;;0.00;;
72373;SDS011;60349;64.132;-21.820;2023-04-16T07:12:30;0.20;;;0.00;;
72373;SDS011;60349;64.132;-21.820;2023-04-16T07:14:56;0.10;;;0.00;;
72373;SDS011;60349;64.132;-21.820;2023-04-16T07:17:22;0.47;;;0.00;;
72373;SDS011;60349;64.132;-21.820;2023-04-16T07:19:50;1.45;;;0.00;;
72373;SDS011;60349;64.132;-21.820;2023-04-16T07:22:16;0.10;;;0.00;;
72373;SDS011;60349;64.132;-21.820;2023-04-16T07:24:43;0.70;;;0.00;;
72373;SDS011;60349;64.132;-21.820;2023-04-16T07:27:09;0.20;;;0.00;;
72373;SDS011;60349;64.132;-21.820;2023-04-16T07:29:36;0.10;;;0.00;;
72373;SDS011;60349;64.132;-21.820;2023-04-16T07:32:02;0.22;;;0.00;;
72373;SDS011;60349;64.132;-21.820;2023-04-16T07:34:29;0.77;;;0.00;;
72373;SDS011;60349;64.132;-21.820;2023-04-16T07:36:55;0.15;;;0.00;;
72373;SDS011;60349;64.132;-21.820;2023-04-16T07:39:21;0.00;;;0.00;;
72373;SDS011;60349;64.132;-21.820;2023-04-16T07:41:47;0.00;;;0.00;;
72373;SDS011;60349;64.132;-21.820;2023-04-16T07:44:13;0.20;;;0.00;;
72373;SDS011;60349;64.132;-21.820;2023-04-16T07:46:39;0.10;;;0.00;;
72373;SDS011;60349;64.132;-21.820;2023-04-16T07:49:05;1.88;;;0.00;;
72373;SDS011;60349;64.132;-21.820;2023-04-16T07:51:32;0.70;;;0.00;;
72373;SDS011;60349;64.132;-21.820;2023-04-16T07:53:58;0.00;;;0.00;;
72373;SDS011;60349;64.132;-21.820;2023-04-16T07:56:24;0.60;;;0.00;;
72373;SDS011;60349;64.132;-21.820;2023-04-16T07:58:51;2.90;;;0.00;;
72373;SDS011;60349;64.132;-21.820;2023-04-16T08:01:17;0.45;;;0.00;;
72373;SDS011;60349;64.132;-21.820;2023-04-16T08:03:43;0.20;;;0.00;;
72373;SDS011;60349;64.132;-21.820;2023-04-16T08:06:09;0.15;;;0.00;;
72373;SDS011;60349;64.132;-21.820;2023-04-16T08:08:35;0.40;;;0.00;;
72373;SDS011;60349;64.132;-21.820;2023-04-16T08:11:02;0.05;;;0.00;;
72373;SDS011;60349;64.132;-21.820;2023-04-16T08:13:28;0.08;;;0.00;;
72373;SDS011;60349;64.132;-21.820;2023-04-16T08:15:54;0.45;;;0.00;;
72373;SDS011;60349;64.132;-21.820;2023-04-16T08:18:20;0.00;;;0.00;;
72373;SDS011;60349;64.132;-21.820;2023-04-16T08:20:46;0.13;;;0.00;;
72373;SDS011;60349;64.132;-21.820;2023-04-16T08:23:12;0.43;;;0.00;;
72373;SDS011;60349;64.132;-21.820;2023-04-16T08:25:39;0.00;;;0.00;;
72373;SDS011;60349;64.132;-21.820;2023-04-16T08:28:05;0.38;;;0.00;;
72373;SDS011;60349;64.132;-21.820;2023-04-16T08:30:31;1.65;;;0.00;;
72373;SDS011;60349;64.132;-21.820;2023-04-16T08:32:57;0.60;;;0.00;;
72373;SDS011;60349;64.132;-21.820;2023-04-16T08:35:23;0.00;;;0.00;;
72373;SDS011;60349;64.132;-21.820;2023-04-16T08:37:50;2.47;;;0.00;;
72373;SDS011;60349;64.132;-21.820;2023-04-16T08:40:16;0.05;;;0.00;;
72373;SDS011;60349;64.132;-21.820;2023-04-16T08:42:51;0.10;;;0.00;;
72373;SDS011;60349;64.132;-21.820;2023-04-16T08:45:18;0.00;;;0.00;;
72373;SDS011;60349;64.132;-21.820;2023-04-16T08:47:45;0.03;;;0.00;;
72373;SDS011;60349;64.132;-21.820;2023-04-16T08:50:15;0.00;;;0.00;;
72373;SDS011;60349;64.132;-21.820;2023-04-16T08:52:46;0.40;;;0.00;;
72373;SDS011;60349;64.132;-21.820;2023-04-16T08:55:18;0.10;;;0.00;;
72373;SDS011;60349;64.132;-21.820;2023-04-16T08:57:49;0.10;;;0.00;;
72373;SDS011;60349;64.132;-21.820;2023-04-16T09:00:17;0.00;;;0.00;;
72373;SDS011;60349;64.132;-21.820;2023-04-16T09:02:44;0.25;;;0.00;;
72373;SDS011;60349;64.132;-21.820;2023-04-16T09:05:11;0.20;;;0.00;;
72373;SDS011;60349;64.132;-21.820;2023-04-16T09:07:41;0.57;;;0.00;;
72373;SDS011;60349;64.132;-21.820;2023-04-16T09:10:07;0.03;;;0.00;;
72373;SDS011;60349;64.132;-21.820;2023-04-16T09:12:33;0.00;;;0.00;;
72373;SDS011;60349;64.132;-21.820;2023-04-16T09:15:00;0.20;;;0.00;;
72373;SDS011;60349;64.132;-21.820;2023-04-16T09:17:27;0.00;;;0.00;;
72373;SDS011;60349;64.132;-21.820;2023-04-16T09:19:53;0.00;;;0.00;;
72373;SDS011;60349;64.132;-21.820;2023-04-16T09:22:19;0.00;;;0.00;;
72373;SDS011;60349;64.132;-21.820;2023-04-16T09:24:46;0.00;;;0.00;;
72373;SDS011;60349;64.132;-21.820;2023-04-16T09:27:12;0.10;;;0.00;;
72373;SDS011;60349;64.132;-21.820;2023-04-16T09:29:39;0.00;;;0.00;;
72373;SDS011;60349;64.132;-21.820;2023-04-16T09:32:06;0.28;;;0.00;;
72373;SDS011;60349;64.132;-21.820;2023-04-16T09:34:32;0.00;;;0.00;;
72373;SDS011;60349;64.132;-21.820;2023-04-16T09:37:14;0.15;;;0.00;;
72373;SDS011;60349;64.132;-21.820;2023-04-16T09:39:43;0.10;;;0.00;;
72373;SDS011;60349;64.132;-21.820;2023-04-16T09:42:10;0.70;;;0.00;;
72373;SDS011;60349;64.132;-21.820;2023-04-16T09:44:36;0.55;;;0.00;;
72373;SDS011;60349;64.132;-21.820;2023-04-16T09:47:06;1.15;;;0.03;;
72373;SDS011;60349;64.132;-21.820;2023-04-16T09:49:34;5.07;;;0.00;;
72373;SDS011;60349;64.132;-21.820;2023-04-16T09:52:00;0.00;;;0.00;;
72373;SDS011;60349;64.132;-21.820;2023-04-16T09:54:26;3.40;;;0.00;;
72373;SDS011;60349;64.132;-21.820;2023-04-16T09:56:55;0.00;;;0.00;;
72373;SDS011;60349;64.132;-21.820;2023-04-16T09:59:22;0.03;;;0.00;;
72373;SDS011;60349;64.132;-21.820;2023-04-16T10:01:49;0.00;;;0.00;;
72373;SDS011;60349;64.132;-21.820;2023-04-16T10:04:17;0.00;;;0.00;;
72373;SDS011;60349;64.132;-21.820;2023-04-16T10:06:44;0.10;;;0.00;;
72373;SDS011;60349;64.132;-21.820;2023-04-16T10:09:30;0.20;;;0.00;;
72373;SDS011;60349;64.132;-21.820;2023-04-16T10:11:57;0.00;;;0.00;;
72373;SDS011;60349;64.132;-21.820;2023-04-16T10:14:25;0.20;;;0.00;;
72373;SDS011;60349;64.132;-21.820;2023-04-16T10:16:51;0.00;;;0.00;;
72373;SDS011;60349;64.132;-21.820;2023-04-16T10:19:17;0.00;;;0.00;;
72373;SDS011;60349;64.132;-21.820;2023-04-16T10:21:44;0.00;;;0.00;;
72373;SDS011;60349;64.132;-21.820;2023-04-16T10:24:10;0.28;;;0.00;;
72373;SDS011;60349;64.132;-21.820;2023-04-16T10:26:37;0.10;;;0.00;;
72373;SDS011;60349;64.132;-21.820;2023-04-16T10:29:03;0.88;;;0.00;;
72373;SDS011;60349;64.132;-21.820;2023-04-16T10:31:30;0.15;;;0.00;;
72373;SDS011;60349;64.132;-21.820;2023-04-16T10:33:57;0.30;;;0.00;;
72373;SDS011;60349;64.132;-21.820;2023-04-16T10:36:23;0.00;;;0.00;;
72373;SDS011;60349;64.132;-21.820;2023-04-16T10:38:56;0.20;;;0.00;;
72373;SDS011;60349;64.132;-21.820;2023-04-16T10:41:24;0.00;;;0.00;;
72373;SDS011;60349;64.132;-21.820;2023-04-16T10:43:50;0.38;;;0.00;;
72373;SDS011;60349;64.132;-21.820;2023-04-16T10:48:43;0.47;;;0.00;;
72373;SDS011;60349;64.132;-21.820;2023-04-16T10:51:21;0.00;;;0.00;;
72373;SDS011;60349;64.132;-21.820;2023-04-16T10:53:48;0.00;;;0.00;;
72373;SDS011;60349;64.132;-21.820;2023-04-16T10:56:16;1.08;;;0.00;;
72373;SDS011;60349;64.132;-21.820;2023-04-16T10:58:47;0.38;;;0.00;;
72373;SDS011;60349;64.132;-21.820;2023-04-16T11:01:13;0.00;;;0.00;;
72373;SDS011;60349;64.132;-21.820;2023-04-16T11:03:41;0.00;;;0.00;;
72373;SDS011;60349;64.132;-21.820;2023-04-16T11:06:14;0.03;;;0.00;;
72373;SDS011;60349;64.132;-21.820;2023-04-16T11:08:44;0.53;;;0.00;;
72373;SDS011;60349;64.132;-21.820;2023-04-16T11:11:11;0.30;;;0.00;;
72373;SDS011;60349;64.132;-21.820;2023-04-16T11:13:40;1.13;;;0.38;;
72373;SDS011;60349;64.132;-21.820;2023-04-16T11:16:07;0.00;;;0.00;;
72373;SDS011;60349;64.132;-21.820;2023-04-16T11:18:35;0.10;;;0.00;;
72373;SDS011;60349;64.132;-21.820;2023-04-16T11:21:01;0.65;;;0.00;;
72373;SDS011;60349;64.132;-21.820;2023-04-16T11:23:27;0.90;;;0.00;;
72373;SDS011;60349;64.132;-21.820;2023-04-16T11:25:53;0.73;;;0.00;;
72373;SDS011;60349;64.132;-21.820;2023-04-16T11:28:34;0.80;;;0.00;;
72373;SDS011;60349;64.132;-21.820;2023-04-16T11:31:08;1.30;;;0.00;;
72373;SDS011;60349;64.132;-21.820;2023-04-16T11:33:36;2.13;;;0.03;;
72373;SDS011;60349;64.132;-21.820;2023-04-16T11:36:03;3.67;;;0.10;;
72373;SDS011;60349;64.132;-21.820;2023-04-16T11:38:36;0.95;;;0.00;;
72373;SDS011;60349;64.132;-21.820;2023-04-16T11:41:02;3.58;;;0.10;;
72373;SDS011;60349;64.132;-21.820;2023-04-16T11:43:28;2.00;;;0.10;;
72373;SDS011;60349;64.132;-21.820;2023-04-16T11:45:59;3.58;;;0.73;;
72373;SDS011;60349;64.132;-21.820;2023-04-16T11:48:44;5.05;;;0.17;;
72373;SDS011;60349;64.132;-21.820;2023-04-16T11:51:13;3.75;;;0.20;;
72373;SDS011;60349;64.132;-21.820;2023-04-16T11:53:46;1.83;;;0.10;;
72373;SDS011;60349;64.132;-21.820;2023-04-16T11:56:13;3.08;;;0.15;;
72373;SDS011;60349;64.132;-21.820;2023-04-16T11:58:39;3.28;;;0.32;;
72373;SDS011;60349;64.132;-21.820;2023-04-16T12:01:07;3.67;;;0.28;;
72373;SDS011;60349;64.132;-21.820;2023-04-16T12:03:37;4.15;;;0.20;;
72373;SDS011;60349;64.132;-21.820;2023-04-16T12:06:06;3.55;;;0.30;;
72373;SDS011;60349;64.132;-21.820;2023-04-16T12:08:33;2.65;;;0.20;;
72373;SDS011;60349;64.132;-21.820;2023-04-16T12:10:59;4.35;;;0.40;;
72373;SDS011;60349;64.132;-21.820;2023-04-16T12:13:25;6.22;;;0.40;;
72373;SDS011;60349;64.132;-21.820;2023-04-16T12:15:52;4.80;;;0.57;;
72373;SDS011;60349;64.132;-21.820;2023-04-16T12:18:20;9.15;;;1.27;;
72373;SDS011;60349;64.132;-21.820;2023-04-16T12:20:50;6.65;;;0.82;;
72373;SDS011;60349;64.132;-21.820;2023-04-16T12:23:29;6.38;;;1.13;;
72373;SDS011;60349;64.132;-21.820;2023-04-16T12:25:56;5.22;;;1.17;;
72373;SDS011;60349;64.132;-21.820;2023-04-16T12:28:33;5.88;;;1.27;;
72373;SDS011;60349;64.132;-21.820;2023-04-16T12:30:59;9.30;;;2.22;;
72373;SDS011;60349;64.132;-21.820;2023-04-16T12:33:26;10.10;;;2.60;;
72373;SDS011;60349;64.132;-21.820;2023-04-16T12:35:52;10.25;;;3.08;;
72373;SDS011;60349;64.132;-21.820;2023-04-16T12:38:18;8.45;;;2.40;;
72373;SDS011;60349;64.132;-21.820;2023-04-16T12:40:45;8.18;;;2.83;;
72373;SDS011;60349;64.132;-21.820;2023-04-16T12:43:11;9.93;;;3.38;;
72373;SDS011;60349;64.132;-21.820;2023-04-16T12:45:40;10.18;;;2.85;;
72373;SDS011;60349;64.132;-21.820;2023-04-16T12:48:06;8.57;;;2.97;;
72373;SDS011;60349;64.132;-21.820;2023-04-16T12:50:32;9.38;;;2.30;;
72373;SDS011;60349;64.132;-21.820;2023-04-16T12:52:58;10.23;;;2.92;;
72373;SDS011;60349;64.132;-21.820;2023-04-16T12:55:24;11.88;;;2.45;;
72373;SDS011;60349;64.132;-21.820;2023-04-16T12:57:51;13.52;;;2.85;;
72373;SDS011;60349;64.132;-21.820;2023-04-16T13:00:17;8.05;;;2.25;;
72373;SDS011;60349;64.132;-21.820;2023-04-16T13:02:44;13.10;;;2.55;;
72373;SDS011;60349;64.132;-21.820;2023-04-16T13:05:10;11.75;;;1.98;;
72373;SDS011;60349;64.132;-21.820;2023-04-16T13:07:38;12.98;;;2.65;;
72373;SDS011;60349;64.132;-21.820;2023-04-16T13:10:05;14.77;;;2.38;;
72373;SDS011;60349;64.132;-21.820;2023-04-16T13:12:31;15.52;;;2.83;;
72373;SDS011;60349;64.132;-21.820;2023-04-16T13:14:58;15.73;;;2.78;;
72373;SDS011;60349;64.132;-21.820;2023-04-16T13:17:24;17.77;;;3.25;;
72373;SDS011;60349;64.132;-21.820;2023-04-16T13:19:50;14.35;;;3.28;;
72373;SDS011;60349;64.132;-21.820;2023-04-16T13:22:16;18.73;;;3.92;;
72373;SDS011;60349;64.132;-21.820;2023-04-16T13:24:42;17.60;;;4.78;;
72373;SDS011;60349;64.132;-21.820;2023-04-16T13:27:08;16.38;;;5.65;;
72373;SDS011;60349;64.132;-21.820;2023-04-16T13:29:35;23.27;;;5.78;;
72373;SDS011;60349;64.132;-21.820;2023-04-16T13:32:01;24.65;;;6.10;;
72373;SDS011;60349;64.132;-21.820;2023-04-16T13:34:27;27.55;;;7.05;;
72373;SDS011;60349;64.132;-21.820;2023-04-16T13:36:54;18.77;;;6.53;;
72373;SDS011;60349;64.132;-21.820;2023-04-16T13:39:20;24.63;;;7.20;;
72373;SDS011;60349;64.132;-21.820;2023-04-16T13:41:46;27.17;;;7.28;;
72373;SDS011;60349;64.132;-21.820;2023-04-16T13:44:15;20.40;;;5.78;;
72373;SDS011;60349;64.132;-21.820;2023-04-16T13:46:41;18.92;;;5.60;;
72373;SDS011;60349;64.132;-21.820;2023-04-16T13:49:11;19.55;;;5.07;;
72373;SDS011;60349;64.132;-21.820;2023-04-16T13:51:37;26.17;;;5.63;;
72373;SDS011;60349;64.132;-21.820;2023-04-16T13:54:03;18.23;;;4.88;;
72373;SDS011;60349;64.132;-21.820;2023-04-16T13:56:30;18.65;;;3.97;;
72373;SDS011;60349;64.132;-21.820;2023-04-16T13:58:56;23.92;;;5.30;;
72373;SDS011;60349;64.132;-21.820;2023-04-16T14:01:22;22.52;;;4.53;;
72373;SDS011;60349;64.132;-21.820;2023-04-16T14:03:48;13.82;;;3.83;;
72373;SDS011;60349;64.132;-21.820;2023-04-16T14:06:15;16.02;;;4.57;;
72373;SDS011;60349;64.132;-21.820;2023-04-16T14:08:42;19.90;;;4.10;;
72373;SDS011;60349;64.132;-21.820;2023-04-16T14:11:08;16.98;;;4.22;;
72373;SDS011;60349;64.132;-21.820;2023-04-16T14:13:35;15.82;;;4.03;;
72373;SDS011;60349;64.132;-21.820;2023-04-16T14:16:01;20.75;;;4.20;;
72373;SDS011;60349;64.132;-21.820;2023-04-16T14:18:27;16.33;;;3.03;;
72373;SDS011;60349;64.132;-21.820;2023-04-16T14:20:53;16.17;;;3.17;;